createdAt,value
2022-10-18T00:00:58.706Z,77.83
2022-10-18T00:03:26.171Z,77.56
2022-10-18T00:05:53.243Z,77.36
2022-10-18T00:08:21.110Z,77.51
2022-10-18T00:10:49.018Z,77.49
2022-10-18T00:13:16.200Z,77.50
2022-10-18T00:15:51.807Z,78.00
2022-10-18T00:18:19.827Z,77.54
2022-10-18T00:21:00.322Z,77.36
2022-10-18T00:23:30.271Z,77.85
2022-10-18T00:26:14.999Z,77.44
2022-10-18T00:28:43.510Z,78.24
2022-10-18T00:31:22.238Z,78.14
2022-10-18T00:33:56.451Z,78.36
2022-10-18T00:36:24.677Z,77.45
2022-10-18T00:38:52.256Z,77.72
2022-10-18T00:41:26.841Z,77.55
2022-10-18T00:44:04.350Z,77.82
2022-10-18T00:46:35.295Z,77.75
2022-10-18T00:49:17.618Z,77.94
2022-10-18T00:52:00.172Z,77.89
2022-10-18T00:54:30.284Z,77.99
2022-10-18T00:56:57.513Z,78.29
2022-10-18T00:59:26.043Z,77.92
2022-10-18T01:01:53.382Z,78.75
2022-10-18T01:04:21.587Z,78.64
2022-10-18T01:07:57.397Z,78.26
2022-10-18T01:11:10.127Z,77.87
2022-10-18T01:13:44.313Z,77.88
2022-10-18T01:16:46.071Z,77.94
2022-10-18T01:19:43.944Z,78.11
2022-10-18T01:22:30.935Z,77.94
2022-10-18T01:25:18.808Z,78.20
2022-10-18T01:28:16.510Z,77.86
2022-10-18T01:30:52.893Z,78.09
2022-10-18T01:34:03.082Z,78.29
2022-10-18T01:36:36.697Z,78.35
2022-10-18T01:39:09.695Z,78.45
2022-10-18T01:41:40.118Z,77.63
2022-10-18T01:44:11.600Z,77.68
2022-10-18T01:46:41.564Z,77.65
2022-10-18T01:49:08.758Z,78.21
2022-10-18T01:51:35.859Z,77.95
2022-10-18T01:54:03.212Z,77.65
2022-10-18T01:56:46.210Z,77.99
2022-10-18T01:59:32.268Z,77.76
2022-10-18T02:02:16.312Z,77.73
2022-10-18T02:05:03.534Z,77.84
2022-10-18T02:08:22.438Z,78.02
2022-10-18T02:10:58.695Z,78.17
2022-10-18T02:13:30.495Z,77.97
2022-10-18T02:16:03.799Z,78.23
2022-10-18T02:18:42.328Z,77.68
2022-10-18T02:21:13.604Z,78.19
2022-10-18T02:23:40.557Z,77.63
2022-10-18T02:26:07.741Z,77.51
2022-10-18T02:28:34.804Z,77.87
2022-10-18T02:31:21.786Z,78.03
2022-10-18T02:34:11.802Z,77.72
2022-10-18T02:36:46.197Z,77.66
2022-10-18T02:39:18.639Z,77.75
2022-10-18T02:41:45.652Z,77.70
2022-10-18T02:44:12.999Z,77.75
2022-10-18T02:46:40.558Z,78.15
2022-10-18T02:49:07.504Z,77.50
2022-10-18T02:51:34.714Z,77.97
2022-10-18T02:54:01.687Z,77.76
2022-10-18T02:56:28.604Z,77.61
2022-10-18T02:58:55.674Z,77.92
2022-10-18T03:01:22.651Z,78.17
2022-10-18T03:03:49.925Z,78.26
2022-10-18T03:06:17.565Z,78.08
2022-10-18T03:08:44.846Z,78.07
2022-10-18T03:11:11.792Z,78.20
2022-10-18T03:13:38.683Z,78.28
2022-10-18T03:16:05.879Z,77.98
2022-10-18T03:18:33.036Z,78.12
2022-10-18T03:21:05.940Z,78.14
2022-10-18T03:23:33.900Z,77.98
2022-10-18T03:26:01.439Z,78.23
2022-10-18T03:28:28.792Z,78.09
2022-10-18T03:31:04.040Z,78.03
2022-10-18T03:33:32.648Z,78.29
2022-10-18T03:36:00.325Z,78.18
2022-10-18T03:38:27.587Z,78.19
2022-10-18T03:40:54.507Z,78.31
2022-10-18T03:43:21.737Z,77.81
2022-10-18T03:45:48.662Z,78.03
2022-10-18T03:48:15.712Z,78.34
2022-10-18T03:50:43.553Z,78.29
2022-10-18T03:53:10.592Z,78.00
2022-10-18T03:55:38.434Z,78.10
2022-10-18T03:58:05.745Z,78.09
2022-10-18T04:00:33.151Z,77.58
2022-10-18T04:03:00.094Z,78.07
2022-10-18T04:05:28.542Z,77.82
2022-10-18T04:07:55.508Z,78.19
2022-10-18T04:10:22.718Z,78.42
2022-10-18T04:12:49.636Z,78.58
2022-10-18T04:15:16.634Z,78.04
2022-10-18T04:17:43.544Z,78.50
2022-10-18T04:20:10.992Z,78.31
2022-10-18T04:22:38.164Z,77.92
2022-10-18T04:25:05.883Z,78.25
2022-10-18T04:27:33.008Z,78.27
2022-10-18T04:30:00.060Z,78.57
2022-10-18T04:32:29.052Z,78.88
2022-10-18T04:34:55.965Z,78.79
2022-10-18T04:37:23.238Z,78.46
2022-10-18T04:39:53.443Z,78.87
2022-10-18T04:42:21.959Z,78.64
2022-10-18T04:44:49.494Z,78.99
2022-10-18T04:47:17.456Z,79.09
2022-10-18T04:49:44.687Z,79.70
2022-10-18T04:52:13.708Z,79.27
2022-10-18T04:54:41.100Z,79.24
2022-10-18T04:57:08.255Z,79.81
2022-10-18T04:59:35.479Z,80.14
2022-10-18T05:04:29.524Z,79.91
2022-10-18T05:06:56.537Z,80.07
2022-10-18T05:09:24.784Z,80.17
2022-10-18T05:11:51.814Z,80.16
2022-10-18T05:14:19.081Z,80.20
2022-10-18T05:16:46.224Z,80.18
2022-10-18T05:19:13.182Z,80.74
2022-10-18T05:21:40.827Z,81.02
2022-10-18T05:24:08.173Z,80.84
2022-10-18T05:26:35.121Z,80.70
2022-10-18T05:29:03.382Z,80.35
2022-10-18T05:31:30.398Z,80.74
2022-10-18T05:33:57.479Z,80.34
2022-10-18T05:36:26.122Z,80.27
2022-10-18T05:38:53.720Z,80.43
2022-10-18T05:41:20.706Z,80.51
2022-10-18T05:43:47.707Z,80.89
2022-10-18T05:46:16.038Z,80.83
2022-10-18T05:48:44.693Z,81.16
2022-10-18T05:51:12.041Z,80.68
2022-10-18T05:53:39.261Z,80.98
2022-10-18T05:56:07.540Z,80.99
2022-10-18T05:58:35.247Z,81.22
2022-10-18T06:01:03.322Z,81.00
2022-10-18T06:03:30.943Z,80.50
2022-10-18T06:06:08.635Z,81.27
2022-10-18T06:08:37.275Z,80.99
2022-10-18T06:11:08.579Z,80.78
2022-10-18T06:13:44.140Z,81.55
2022-10-18T06:16:12.726Z,81.49
2022-10-18T06:18:40.366Z,81.10
2022-10-18T06:21:08.183Z,81.94
2022-10-18T06:23:35.863Z,81.94
2022-10-18T06:26:07.105Z,81.84
2022-10-18T06:28:36.303Z,81.95
2022-10-18T06:31:05.062Z,82.75
2022-10-18T06:33:33.603Z,83.19
2022-10-18T06:36:15.096Z,83.68
2022-10-18T06:38:42.177Z,83.80
2022-10-18T06:41:10.114Z,84.50
2022-10-18T06:43:37.247Z,84.66
2022-10-18T06:46:06.982Z,84.63
2022-10-18T06:48:39.391Z,84.68
2022-10-18T06:51:08.154Z,85.37
2022-10-18T06:53:44.322Z,85.78
2022-10-18T06:56:15.751Z,85.94
2022-10-18T06:58:42.739Z,86.42
2022-10-18T07:01:13.731Z,86.38
2022-10-18T07:03:40.801Z,86.94
2022-10-18T07:06:12.409Z,87.17
2022-10-18T07:08:40.160Z,87.22
2022-10-18T07:11:08.906Z,87.54
2022-10-18T07:13:35.864Z,88.18
2022-10-18T07:16:18.162Z,88.20
2022-10-18T07:18:51.192Z,88.40
2022-10-18T07:21:24.165Z,88.32
2022-10-18T07:23:52.077Z,88.63
2022-10-18T07:26:27.362Z,88.95
2022-10-18T07:29:01.826Z,89.56
2022-10-18T07:31:30.137Z,89.56
2022-10-18T07:33:57.793Z,89.81
2022-10-18T07:36:25.667Z,90.06
2022-10-18T07:38:53.300Z,90.54
2022-10-18T07:41:21.646Z,90.85
2022-10-18T07:43:51.607Z,90.70
2022-10-18T07:46:20.683Z,91.35
2022-10-18T07:48:48.248Z,91.08
2022-10-18T07:51:15.901Z,91.54
2022-10-18T07:53:42.777Z,91.00
2022-10-18T07:56:16.855Z,91.14
2022-10-18T07:58:55.822Z,91.42
2022-10-18T08:01:24.632Z,91.19
2022-10-18T08:03:52.641Z,91.70
2022-10-18T08:06:22.036Z,91.48
2022-10-18T08:08:49.540Z,91.44
2022-10-18T08:11:21.337Z,91.43
2022-10-18T08:13:48.696Z,91.18
2022-10-18T08:16:23.678Z,91.09
2022-10-18T08:18:51.126Z,91.13
2022-10-18T08:21:20.562Z,90.50
2022-10-18T08:23:48.847Z,90.95
2022-10-18T08:26:21.472Z,91.03
2022-10-18T08:29:03.631Z,90.53
2022-10-18T08:31:37.434Z,90.94
2022-10-18T08:34:04.711Z,90.95
2022-10-18T08:36:31.816Z,90.72
2022-10-18T08:38:58.979Z,90.29
2022-10-18T08:41:38.499Z,90.01
2022-10-18T08:44:24.269Z,90.03
2022-10-18T08:47:11.653Z,89.54
2022-10-18T08:49:53.546Z,89.33
2022-10-18T08:52:34.802Z,88.92
2022-10-18T08:55:12.786Z,88.91
2022-10-18T08:57:40.314Z,88.91
2022-10-18T09:00:19.250Z,87.90
2022-10-18T09:03:07.560Z,88.17
2022-10-18T09:05:40.205Z,88.43
2022-10-18T09:08:49.473Z,88.31
2022-10-18T09:11:24.265Z,87.57
2022-10-18T09:14:37.620Z,87.79
2022-10-18T09:17:46.450Z,87.59
2022-10-18T09:20:29.707Z,86.92
2022-10-18T09:23:05.284Z,87.08
2022-10-18T09:26:02.553Z,86.85
2022-10-18T09:28:48.978Z,86.42
2022-10-18T09:31:44.799Z,86.34
2022-10-18T09:34:26.175Z,85.68
2022-10-18T09:36:54.663Z,85.09
2022-10-18T09:39:37.484Z,84.60
2022-10-18T09:42:15.192Z,84.39
2022-10-18T09:44:51.707Z,84.36
2022-10-18T09:47:41.537Z,84.69
2022-10-18T09:50:25.850Z,84.29
2022-10-18T09:53:02.093Z,84.48
2022-10-18T09:55:36.634Z,83.84
2022-10-18T09:58:07.182Z,83.84
2022-10-18T10:00:50.123Z,84.17
2022-10-18T10:03:17.312Z,83.10
2022-10-18T10:05:44.756Z,82.06
2022-10-18T10:08:12.114Z,82.54
2022-10-18T10:10:42.814Z,82.38
2022-10-18T10:13:27.791Z,81.95
2022-10-18T10:16:01.448Z,81.84
2022-10-18T10:18:34.977Z,81.31
2022-10-18T10:21:15.032Z,81.03
2022-10-18T10:23:58.111Z,80.12
2022-10-18T10:26:36.708Z,80.10
2022-10-18T10:29:03.840Z,80.08
2022-10-18T10:31:31.869Z,80.21
2022-10-18T10:34:27.748Z,78.81
2022-10-18T10:36:55.427Z,79.54
2022-10-18T10:39:24.663Z,79.34
2022-10-18T10:41:55.035Z,78.30
2022-10-18T10:44:32.094Z,77.83
2022-10-18T10:47:00.154Z,77.64
2022-10-18T10:49:44.238Z,77.50
2022-10-18T10:52:28.589Z,77.16
2022-10-18T10:57:47.998Z,76.48
2022-10-18T11:00:38.299Z,76.18
2022-10-18T11:03:27.813Z,75.75
2022-10-18T11:06:02.418Z,75.48
2022-10-18T11:08:40.644Z,75.13
2022-10-18T11:11:27.976Z,73.26
2022-10-18T11:14:31.834Z,72.74
2022-10-18T11:17:17.987Z,71.85
2022-10-18T11:20:07.842Z,72.24
2022-10-18T11:23:00.632Z,71.92
2022-10-18T11:26:12.840Z,71.47
2022-10-18T11:29:07.950Z,71.06
2022-10-18T11:31:56.650Z,71.94
2022-10-18T11:34:35.731Z,71.49
2022-10-18T11:37:43.111Z,70.81
2022-10-18T11:40:40.901Z,69.39
2022-10-18T11:44:02.953Z,69.25
2022-10-18T11:47:02.541Z,68.26
2022-10-18T11:50:03.294Z,67.56
2022-10-18T11:52:53.956Z,67.82
2022-10-18T11:59:17.163Z,67.44
2022-10-18T12:02:16.433Z,66.52
2022-10-18T12:08:15.393Z,66.19
2022-10-18T12:11:06.613Z,65.85
2022-10-18T12:13:46.814Z,64.70
2022-10-18T12:16:14.659Z,65.43
2022-10-18T12:18:59.516Z,65.66
2022-10-18T12:21:32.215Z,65.81
2022-10-18T12:24:06.983Z,64.81
2022-10-18T12:26:35.565Z,64.88
2022-10-18T12:29:31.727Z,64.69
2022-10-18T12:32:23.587Z,64.33
2022-10-18T12:35:17.846Z,64.03
2022-10-18T12:37:50.888Z,64.48
2022-10-18T12:40:34.347Z,64.30
2022-10-18T12:43:10.353Z,63.66
2022-10-18T12:45:57.679Z,63.79
2022-10-18T12:48:43.752Z,62.88
2022-10-18T12:51:22.336Z,62.74
2022-10-18T12:53:53.139Z,62.17
2022-10-18T12:56:44.694Z,61.58
2022-10-18T12:59:14.667Z,61.42
2022-10-18T13:01:51.218Z,60.79
2022-10-18T13:04:27.574Z,60.51
2022-10-18T13:06:57.757Z,61.25
2022-10-18T13:09:28.938Z,61.26
2022-10-18T13:12:16.151Z,60.72
2022-10-18T13:15:24.171Z,60.75
2022-10-18T13:18:04.947Z,61.12
2022-10-18T13:20:44.757Z,60.78
2022-10-18T13:23:38.682Z,60.42
2022-10-18T13:26:43.667Z,60.29
2022-10-18T13:29:41.244Z,60.60
2022-10-18T13:32:34.106Z,59.83
2022-10-18T13:35:01.450Z,59.55
2022-10-18T13:37:30.797Z,59.58
2022-10-18T13:40:26.413Z,58.82
2022-10-18T13:42:54.027Z,58.95
2022-10-18T13:45:33.759Z,58.76
2022-10-18T13:48:32.021Z,58.92
2022-10-18T13:51:32.544Z,57.79
2022-10-18T13:54:16.932Z,57.12
2022-10-18T13:57:13.394Z,57.08
2022-10-18T14:00:29.279Z,57.19
2022-10-18T14:03:51.803Z,57.68
2022-10-18T14:06:36.313Z,56.32
2022-10-18T14:09:45.357Z,56.98
2022-10-18T14:12:38.740Z,57.10
2022-10-18T14:15:23.879Z,57.25
2022-10-18T14:17:59.168Z,57.38
2022-10-18T14:20:49.099Z,57.05
2022-10-18T14:23:24.832Z,57.55
2022-10-18T14:26:01.725Z,57.50
2022-10-18T14:28:48.115Z,57.38
2022-10-18T14:31:18.619Z,56.97
2022-10-18T14:33:58.530Z,56.85
2022-10-18T14:36:46.224Z,56.83
2022-10-18T14:39:28.277Z,56.31
2022-10-18T14:41:58.160Z,56.55
2022-10-18T14:44:31.774Z,56.81
2022-10-18T14:47:12.635Z,56.69
2022-10-18T14:49:45.045Z,56.26
2022-10-18T14:52:35.680Z,56.39
2022-10-18T14:55:05.390Z,56.81
2022-10-18T14:57:36.626Z,57.31
2022-10-18T15:02:56.469Z,57.54
2022-10-18T15:05:26.971Z,57.64
2022-10-18T15:07:55.109Z,57.96
2022-10-18T15:10:34.067Z,57.82
2022-10-18T15:13:10.289Z,57.78
2022-10-18T15:15:39.761Z,57.53
2022-10-18T15:18:08.355Z,57.94
2022-10-18T15:20:42.980Z,58.18
2022-10-18T15:23:28.508Z,58.31
2022-10-18T15:26:09.693Z,58.24
2022-10-18T15:28:51.185Z,57.96
2022-10-18T15:31:32.496Z,58.51
2022-10-18T15:34:24.672Z,58.20
2022-10-18T15:36:54.441Z,59.11
2022-10-18T15:39:31.257Z,59.65
2022-10-18T15:42:01.201Z,59.74
2022-10-18T15:44:50.864Z,60.05
2022-10-18T15:47:21.041Z,60.78
2022-10-18T15:49:58.306Z,61.25
2022-10-18T15:52:37.726Z,61.14
2022-10-18T15:55:29.697Z,62.01
2022-10-18T15:58:16.963Z,62.28
2022-10-18T16:00:46.065Z,62.84
2022-10-18T16:03:13.797Z,62.99
2022-10-18T16:05:41.321Z,63.35
2022-10-18T16:08:23.941Z,63.53
2022-10-18T16:10:51.950Z,63.86
2022-10-18T16:13:19.063Z,63.96
2022-10-18T16:15:46.418Z,64.27
2022-10-18T16:18:17.903Z,64.58
2022-10-18T16:20:46.683Z,64.59
2022-10-18T16:23:21.192Z,64.94
2022-10-18T16:25:48.740Z,64.68
2022-10-18T16:28:20.058Z,64.89
2022-10-18T16:30:55.342Z,65.03
2022-10-18T16:33:23.499Z,65.27
2022-10-18T16:35:51.002Z,65.37
2022-10-18T16:38:32.800Z,65.15
2022-10-18T16:41:07.587Z,65.67
2022-10-18T16:43:35.472Z,66.09
2022-10-18T16:46:04.573Z,66.22
2022-10-18T16:48:31.932Z,65.94
2022-10-18T16:50:59.482Z,65.98
2022-10-18T16:53:27.989Z,66.36
2022-10-18T16:55:59.179Z,66.47
2022-10-18T16:58:28.895Z,66.48
2022-10-18T17:00:57.660Z,66.75
2022-10-18T17:03:26.755Z,66.97
2022-10-18T17:05:54.359Z,66.67
2022-10-18T17:08:25.751Z,66.68
2022-10-18T17:10:57.284Z,66.62
2022-10-18T17:13:26.140Z,67.12
2022-10-18T17:15:53.896Z,66.71
2022-10-18T17:18:26.436Z,67.44
2022-10-18T17:20:54.396Z,67.22
2022-10-18T17:23:21.896Z,67.08
2022-10-18T17:26:04.639Z,67.48
2022-10-18T17:28:34.483Z,67.94
2022-10-18T17:31:01.736Z,67.56
2022-10-18T17:33:28.764Z,67.84
2022-10-18T17:35:55.750Z,67.87
2022-10-18T17:38:22.702Z,67.38
2022-10-18T17:40:52.675Z,68.05
2022-10-18T17:43:20.107Z,67.77
2022-10-18T17:45:55.450Z,67.95
2022-10-18T17:48:24.517Z,68.38
2022-10-18T17:50:51.755Z,68.51
2022-10-18T17:53:22.859Z,68.60
2022-10-18T17:55:50.178Z,68.75
2022-10-18T17:58:17.209Z,68.95
2022-10-18T18:00:44.148Z,69.17
2022-10-18T18:03:11.608Z,69.16
2022-10-18T18:05:39.011Z,68.89
2022-10-18T18:08:06.134Z,69.43
2022-10-18T18:10:34.653Z,69.35
2022-10-18T18:13:02.753Z,69.49
2022-10-18T18:15:29.714Z,69.59
2022-10-18T18:17:57.883Z,69.52
2022-10-18T18:20:26.429Z,69.33
2022-10-18T18:22:53.409Z,70.01
2022-10-18T18:25:20.456Z,70.27
2022-10-18T18:27:47.498Z,70.45
2022-10-18T18:30:17.798Z,70.13
2022-10-18T18:32:44.977Z,70.04
2022-10-18T18:35:12.062Z,69.91
2022-10-18T18:37:39.099Z,70.05
2022-10-18T18:40:06.859Z,70.01
2022-10-18T18:42:34.091Z,70.00
2022-10-18T18:45:02.313Z,69.88
2022-10-18T18:47:29.308Z,70.55
2022-10-18T18:49:56.324Z,70.43
2022-10-18T18:52:23.268Z,70.94
2022-10-18T18:54:52.038Z,70.39
2022-10-18T18:57:19.942Z,70.82
2022-10-18T18:59:46.913Z,71.02
2022-10-18T19:02:13.847Z,70.92
2022-10-18T19:04:41.553Z,71.19
2022-10-18T19:07:08.524Z,70.96
2022-10-18T19:09:38.264Z,71.29
2022-10-18T19:12:05.802Z,71.11
2022-10-18T19:14:32.676Z,71.47
2022-10-18T19:17:01.175Z,71.47
2022-10-18T19:19:31.668Z,71.58
2022-10-18T19:22:03.635Z,71.51
2022-10-18T19:24:32.072Z,72.22
2022-10-18T19:27:04.835Z,71.76
2022-10-18T19:29:36.966Z,71.81
2022-10-18T19:32:07.823Z,71.56
2022-10-18T19:34:35.348Z,72.24
2022-10-18T19:37:02.324Z,72.74
2022-10-18T19:39:34.770Z,72.63
2022-10-18T19:42:06.022Z,72.32
2022-10-18T19:44:36.001Z,72.77
2022-10-18T19:47:05.810Z,72.33
2022-10-18T19:49:33.455Z,72.05
2022-10-18T19:52:00.549Z,72.58
2022-10-18T19:54:28.457Z,72.14
2022-10-18T19:56:55.686Z,72.88
2022-10-18T19:59:24.122Z,73.05
2022-10-18T20:01:51.282Z,73.00
2022-10-18T20:04:18.392Z,73.03
2022-10-18T20:06:45.717Z,72.17
2022-10-18T20:09:16.270Z,72.79
2022-10-18T20:11:46.471Z,72.65
2022-10-18T20:14:13.393Z,72.57
2022-10-18T20:16:40.244Z,73.22
2022-10-18T20:19:07.738Z,73.29
2022-10-18T20:21:36.418Z,73.38
2022-10-18T20:24:05.927Z,73.14
2022-10-18T20:26:34.610Z,73.49
2022-10-18T20:29:02.026Z,72.89
2022-10-18T20:31:32.378Z,72.72
2022-10-18T20:34:03.213Z,73.14
2022-10-18T20:36:32.108Z,72.98
2022-10-18T20:39:00.349Z,73.23
2022-10-18T20:41:34.750Z,73.58
2022-10-18T20:44:07.079Z,73.06
2022-10-18T20:46:37.174Z,73.50
2022-10-18T20:49:06.587Z,73.34
2022-10-18T20:51:34.562Z,74.00
2022-10-18T20:56:35.373Z,74.32
2022-10-18T20:59:06.157Z,74.51
2022-10-18T21:01:35.037Z,73.97
2022-10-18T21:04:08.526Z,73.95
2022-10-18T21:06:40.324Z,74.40
2022-10-18T21:09:11.745Z,74.21
2022-10-18T21:11:41.701Z,74.04
2022-10-18T21:14:16.118Z,74.42
2022-10-18T21:16:44.273Z,74.58
2022-10-18T21:19:27.027Z,74.46
2022-10-18T21:21:57.164Z,74.35
2022-10-18T21:24:25.800Z,74.78
2022-10-18T21:26:53.759Z,74.75
2022-10-18T21:29:22.610Z,74.67
2022-10-18T21:31:54.110Z,74.85
2022-10-18T21:34:21.597Z,74.53
2022-10-18T21:36:49.281Z,75.85
2022-10-18T21:39:21.090Z,75.07
2022-10-18T21:41:49.277Z,75.70
2022-10-18T21:44:18.162Z,75.82
2022-10-18T21:46:46.843Z,75.91
2022-10-18T21:49:14.925Z,76.08
2022-10-18T21:51:42.528Z,76.00
2022-10-18T21:54:15.668Z,75.94
2022-10-18T21:56:43.608Z,76.05
2022-10-18T21:59:14.460Z,75.92
2022-10-18T22:01:43.664Z,75.83
2022-10-18T22:04:25.361Z,76.10
2022-10-18T22:06:52.620Z,76.13
2022-10-18T22:09:21.358Z,75.58
2022-10-18T22:11:52.758Z,75.63
2022-10-18T22:14:20.285Z,75.55
2022-10-18T22:16:47.361Z,76.04
2022-10-18T22:19:14.529Z,75.60
2022-10-18T22:21:41.841Z,75.55
2022-10-18T22:24:10.137Z,75.14
2022-10-18T22:26:40.920Z,76.16
2022-10-18T22:29:18.866Z,75.53
2022-10-18T22:31:53.680Z,76.12
2022-10-18T22:34:29.137Z,75.73
2022-10-18T22:36:56.306Z,76.02
2022-10-18T22:39:24.570Z,75.81
2022-10-18T22:41:55.758Z,76.38
2022-10-18T22:44:23.228Z,76.25
2022-10-18T22:46:50.141Z,76.53
2022-10-18T22:49:17.121Z,76.20
2022-10-18T22:51:44.148Z,75.91
2022-10-18T22:54:11.249Z,75.83
2022-10-18T22:56:38.388Z,76.45
2022-10-18T22:59:05.669Z,76.19
2022-10-18T23:01:32.748Z,76.37
2022-10-18T23:04:01.193Z,76.36
2022-10-18T23:06:37.171Z,76.57
2022-10-18T23:09:07.979Z,76.01
2022-10-18T23:11:36.465Z,76.23
2022-10-18T23:14:05.884Z,76.39
2022-10-18T23:16:33.465Z,77.21
2022-10-18T23:19:00.456Z,77.28
2022-10-18T23:21:48.123Z,76.80
2022-10-18T23:24:15.152Z,76.49
2022-10-18T23:26:42.086Z,76.42
2022-10-18T23:29:10.219Z,76.69
2022-10-18T23:31:39.099Z,76.72
2022-10-18T23:34:06.466Z,76.63
2022-10-18T23:36:33.938Z,77.15
2022-10-18T23:39:01.516Z,76.94
2022-10-18T23:41:28.503Z,77.03
2022-10-18T23:43:56.154Z,76.69
2022-10-18T23:46:23.570Z,76.85
2022-10-18T23:48:50.998Z,76.66
2022-10-18T23:51:18.639Z,76.52
2022-10-18T23:53:45.872Z,76.82
2022-10-18T23:56:15.745Z,77.00
2022-10-18T23:58:44.235Z,76.86
